Time;durP1;ratioP1;P1;durP2;ratioP2;P2;SDS_P1;SDS_P2;PMS_P1;PMS_P2;Temp;Humidity;BMP_temperature;BMP_pressure;BME280_temperature;BME280_humidity;BME280_pressure;Samples;Min_cycle;Max_cycle;Signal;HPM_P1;HPM_P2
2021/06/20 00:00:13;;;;;;;76.38;51.85;;;17.00;99.90;;;;;;4185073;28;20667;-79
2021/06/20 00:02:13;;;;;;;79.00;48.78;;;17.20;99.90;;;;;;4185708;28;20044;-78
2021/06/20 00:04:14;;;;;;;87.40;52.67;;;17.30;99.90;;;;;;4196029;28;20036;-79
2021/06/20 00:06:27;;;;;;;82.65;50.38;;;17.10;99.90;;;;;;4198193;28;20476;-78
2021/06/20 00:08:28;;;;;;;78.45;49.60;;;16.90;99.90;;;;;;4187436;28;20040;-79
2021/06/20 00:10:29;;;;;;;75.00;49.88;;;17.20;99.90;;;;;;4193070;28;20024;-79
2021/06/20 00:12:31;;;;;;;79.30;49.08;;;17.30;99.90;;;;;;4195502;28;20036;-79
2021/06/20 00:14:31;;;;;;;80.65;51.08;;;17.30;99.90;;;;;;4193548;28;20033;-80
2021/06/20 00:16:33;;;;;;;75.65;47.65;;;17.40;99.90;;;;;;4182352;28;20044;-79
2021/06/20 00:18:34;;;;;;;77.38;52.63;;;17.40;99.90;;;;;;4195163;28;20025;-79
2021/06/20 00:20:39;;;;;;;81.10;54.85;;;17.50;99.90;;;;;;4195025;28;20171;-78
2021/06/20 00:22:41;;;;;;;79.75;52.60;;;17.50;99.90;;;;;;4193845;28;20491;-79
2021/06/20 00:24:41;;;;;;;84.88;50.53;;;17.50;99.90;;;;;;4197756;28;20036;-79
2021/06/20 00:26:42;;;;;;;85.45;58.17;;;17.60;99.90;;;;;;4184918;28;20029;-79
2021/06/20 00:28:43;;;;;;;86.70;58.60;;;17.60;99.90;;;;;;4187698;28;20032;-79
2021/06/20 00:30:44;;;;;;;87.03;53.70;;;17.60;99.90;;;;;;4198508;28;20577;-79
2021/06/20 00:32:46;;;;;;;75.93;48.60;;;17.60;99.90;;;;;;4198249;28;20471;-79
2021/06/20 00:34:47;;;;;;;80.55;51.33;;;17.60;99.90;;;;;;4195030;28;20056;-78
2021/06/20 00:36:47;;;;;;;76.10;50.40;;;17.70;99.90;;;;;;4198173;28;20037;-77
2021/06/20 00:38:48;;;;;;;73.82;46.70;;;17.80;99.90;;;;;;4199357;28;20116;-78
2021/06/20 00:40:49;;;;;;;74.18;47.42;;;17.80;99.90;;;;;;4192862;28;20040;-77
2021/06/20 00:42:49;;;;;;;74.30;48.53;;;17.80;99.90;;;;;;4192034;28;20403;-78
2021/06/20 00:44:50;;;;;;;74.93;50.67;;;17.80;99.90;;;;;;4197546;28;20442;-78
2021/06/20 00:46:51;;;;;;;76.78;51.20;;;17.80;99.90;;;;;;4198788;28;20024;-77
2021/06/20 00:48:54;;;;;;;82.68;51.50;;;17.70;99.90;;;;;;4198308;28;20040;-78
2021/06/20 00:50:54;;;;;;;110.57;92.22;;;17.70;99.90;;;;;;4196479;28;20090;-78
2021/06/20 00:52:59;;;;;;;127.90;114.85;;;17.70;99.90;;;;;;4195528;28;20094;-78
2021/06/20 00:55:00;;;;;;;91.78;61.75;;;17.70;99.90;;;;;;4197351;28;20348;-78
2021/06/20 00:57:01;;;;;;;117.82;106.72;;;17.80;99.90;;;;;;4198300;28;20032;-78
2021/06/20 00:59:03;;;;;;;83.40;67.32;;;17.90;99.90;;;;;;4197414;28;20475;-77
2021/06/20 01:01:04;;;;;;;112.80;100.57;;;18.00;99.90;;;;;;4197234;28;20380;-77
2021/06/20 01:03:06;;;;;;;67.80;46.78;;;18.10;99.90;;;;;;4195356;28;20052;-77
2021/06/20 01:05:09;;;;;;;57.80;43.97;;;18.10;99.90;;;;;;4189793;28;20431;-77
2021/06/20 01:07:13;;;;;;;70.50;49.83;;;18.20;99.90;;;;;;4198034;28;20123;-77
2021/06/20 01:09:15;;;;;;;73.82;62.58;;;18.10;99.90;;;;;;4193301;28;20182;-79
2021/06/20 01:11:22;;;;;;;119.40;108.00;;;18.10;99.90;;;;;;4192604;28;20021;-79
2021/06/20 01:13:23;;;;;;;62.47;48.78;;;18.10;99.90;;;;;;4190977;28;20434;-78
2021/06/20 01:15:23;;;;;;;72.15;60.65;;;18.00;99.90;;;;;;4196687;28;20032;-78
2021/06/20 01:17:24;;;;;;;62.30;46.33;;;18.00;99.90;;;;;;4186411;28;20399;-78
2021/06/20 01:19:25;;;;;;;63.95;47.63;;;18.00;99.90;;;;;;4191211;28;20036;-78
2021/06/20 01:21:26;;;;;;;65.40;51.40;;;18.00;99.90;;;;;;4188406;28;20029;-79
2021/06/20 01:23:26;;;;;;;59.05;46.25;;;18.00;99.90;;;;;;4193758;28;20091;-78
2021/06/20 01:25:28;;;;;;;62.00;45.13;;;18.00;99.90;;;;;;4180877;28;20494;-79
2021/06/20 01:27:33;;;;;;;56.08;42.53;;;18.10;99.90;;;;;;4198306;28;20025;-79
2021/06/20 01:29:34;;;;;;;66.25;49.50;;;18.00;99.90;;;;;;4197010;28;20044;-78
2021/06/20 01:31:36;;;;;;;61.40;46.85;;;18.00;99.90;;;;;;4180086;28;20052;-79
2021/06/20 01:33:37;;;;;;;56.85;44.00;;;18.00;99.90;;;;;;4190965;28;20032;-79
2021/06/20 01:35:39;;;;;;;58.25;45.70;;;18.00;99.90;;;;;;4193562;28;20465;-79
2021/06/20 01:37:40;;;;;;;63.38;46.92;;;18.00;99.90;;;;;;4194662;28;20025;-79
2021/06/20 01:39:42;;;;;;;65.25;50.63;;;18.00;99.90;;;;;;4182290;28;20024;-79
2021/06/20 01:41:43;;;;;;;61.60;45.85;;;18.00;99.90;;;;;;4187157;28;20102;-79
2021/06/20 01:43:44;;;;;;;65.63;45.50;;;17.90;99.90;;;;;;4193187;28;20062;-79
2021/06/20 01:45:44;;;;;;;76.38;63.85;;;17.90;99.90;;;;;;4197785;28;20033;-78
2021/06/20 01:47:45;;;;;;;60.10;49.75;;;18.00;99.90;;;;;;4196860;28;20103;-78
2021/06/20 01:49:46;;;;;;;69.28;61.85;;;18.00;99.90;;;;;;4196839;28;20082;-78
2021/06/20 01:51:49;;;;;;;72.43;61.53;;;18.00;99.90;;;;;;4196369;28;20063;-77
2021/06/20 01:53:50;;;;;;;54.20;41.95;;;17.90;99.90;;;;;;4197536;28;20032;-78
2021/06/20 01:55:51;;;;;;;49.70;38.88;;;17.90;99.90;;;;;;4194896;28;20406;-78
2021/06/20 01:57:52;;;;;;;54.15;44.58;;;17.90;99.90;;;;;;4183427;28;20089;-79
2021/06/20 01:59:57;;;;;;;52.35;42.47;;;17.90;99.90;;;;;;4197224;28;20016;-78
2021/06/20 02:01:57;;;;;;;51.90;41.20;;;17.90;99.90;;;;;;4195204;28;20032;-78
2021/06/20 02:03:59;;;;;;;57.60;43.75;;;17.90;99.90;;;;;;4185833;28;20047;-79
2021/06/20 02:06:00;;;;;;;55.58;42.85;;;18.00;99.90;;;;;;4191586;28;20408;-79
2021/06/20 02:08:02;;;;;;;54.33;42.55;;;18.00;99.90;;;;;;4195733;28;20158;-79
2021/06/20 02:10:09;;;;;;;52.10;40.03;;;18.00;99.90;;;;;;4197242;28;20123;-79
2021/06/20 02:12:10;;;;;;;59.30;42.90;;;18.10;99.90;;;;;;4196996;28;20056;-78
2021/06/20 02:14:15;;;;;;;59.58;52.95;;;17.90;99.90;;;;;;4186508;28;20075;-79
2021/06/20 02:16:15;;;;;;;61.78;46.72;;;17.90;99.90;;;;;;4192903;28;20041;-79
2021/06/20 02:18:16;;;;;;;58.92;47.20;;;17.80;99.90;;;;;;4195152;28;20058;-79
2021/06/20 02:20:20;;;;;;;62.28;46.75;;;17.80;99.90;;;;;;4197717;28;20506;-78
2021/06/20 02:22:21;;;;;;;51.83;40.15;;;17.80;99.90;;;;;;4197401;28;21059;-79
2021/06/20 02:24:22;;;;;;;52.05;40.25;;;17.80;99.90;;;;;;4187274;28;20492;-78
2021/06/20 02:26:23;;;;;;;56.47;41.67;;;17.70;99.90;;;;;;4191353;28;20082;-80
2021/06/20 02:28:23;;;;;;;56.33;40.00;;;17.80;99.90;;;;;;4194364;28;20031;-80
2021/06/20 02:30:25;;;;;;;55.13;40.30;;;17.70;99.90;;;;;;4197069;28;20032;-80
2021/06/20 02:32:26;;;;;;;59.90;47.13;;;17.70;99.90;;;;;;4195520;28;20025;-79
2021/06/20 02:34:27;;;;;;;58.25;41.25;;;17.70;99.90;;;;;;4194555;28;20491;-81
2021/06/20 02:36:27;;;;;;;104.13;94.50;;;17.80;99.90;;;;;;4173235;28;20025;-80
2021/06/20 02:38:28;;;;;;;66.28;59.42;;;17.90;99.90;;;;;;4196754;28;20482;-80
2021/06/20 02:40:29;;;;;;;60.78;48.90;;;17.90;99.90;;;;;;4192832;28;20060;-79
2021/06/20 02:42:29;;;;;;;53.33;41.75;;;18.00;99.90;;;;;;4195216;28;20474;-80
2021/06/20 02:44:31;;;;;;;54.88;43.67;;;17.90;99.90;;;;;;4195500;28;20032;-79
2021/06/20 02:46:31;;;;;;;112.22;102.07;;;18.00;99.90;;;;;;4194594;28;20063;-79
2021/06/20 02:48:32;;;;;;;257.65;233.30;;;17.90;99.90;;;;;;4195590;28;20041;-79
2021/06/20 02:50:33;;;;;;;73.03;65.20;;;17.90;99.90;;;;;;4195716;28;20024;-79
2021/06/20 02:52:34;;;;;;;70.00;61.53;;;17.90;99.90;;;;;;4194361;28;20037;-80
2021/06/20 02:54:35;;;;;;;60.97;43.90;;;17.90;99.90;;;;;;4189558;28;20033;-79
2021/06/20 02:56:39;;;;;;;59.42;46.13;;;17.90;99.90;;;;;;4191940;28;20483;-79
2021/06/20 02:58:39;;;;;;;62.03;54.83;;;18.00;99.90;;;;;;4185028;28;20502;-80
2021/06/20 03:00:40;;;;;;;59.58;53.17;;;18.20;99.90;;;;;;4184730;28;20029;-79
2021/06/20 03:02:41;;;;;;;55.05;43.35;;;18.20;99.90;;;;;;4187937;28;20439;-79
2021/06/20 03:04:43;;;;;;;53.75;44.53;;;18.30;99.90;;;;;;4190599;28;20364;-79
2021/06/20 03:06:44;;;;;;;66.75;59.78;;;18.30;99.90;;;;;;4193719;28;20036;-79
2021/06/20 03:08:44;;;;;;;73.05;56.22;;;18.20;99.90;;;;;;4194564;28;20040;-79
2021/06/20 03:10:45;;;;;;;68.70;61.20;;;18.10;99.90;;;;;;4194901;28;20036;-78
2021/06/20 03:12:46;;;;;;;59.03;50.50;;;18.00;99.90;;;;;;4186689;28;20032;-79
2021/06/20 03:14:47;;;;;;;54.92;42.17;;;17.90;99.90;;;;;;4194563;28;20037;-79
2021/06/20 03:16:48;;;;;;;48.08;37.25;;;17.80;99.90;;;;;;4178463;28;20041;-80
2021/06/20 03:18:49;;;;;;;46.03;37.35;;;17.70;99.90;;;;;;4183425;28;20031;-80
2021/06/20 03:20:50;;;;;;;49.80;35.97;;;17.70;99.90;;;;;;4187946;28;20484;-80
2021/06/20 03:22:50;;;;;;;45.15;35.38;;;17.50;99.90;;;;;;4189124;28;20033;-80
2021/06/20 03:24:51;;;;;;;43.95;33.40;;;17.50;99.90;;;;;;4195366;28;20032;-80
2021/06/20 03:26:52;;;;;;;45.90;34.03;;;17.50;99.90;;;;;;4193933;28;20107;-80
2021/06/20 03:28:54;;;;;;;42.10;33.00;;;17.50;99.90;;;;;;4186007;28;20029;-80
2021/06/20 03:30:55;;;;;;;42.78;33.15;;;17.60;99.90;;;;;;4195666;28;20028;-79
2021/06/20 03:32:56;;;;;;;38.95;29.15;;;17.50;99.90;;;;;;4194848;28;20052;-80
2021/06/20 03:34:56;;;;;;;40.67;31.33;;;17.50;99.90;;;;;;4196160;28;20432;-80
2021/06/20 03:36:57;;;;;;;36.97;28.02;;;17.60;99.90;;;;;;4195379;28;20101;-79
2021/06/20 03:38:58;;;;;;;36.33;27.80;;;17.60;99.90;;;;;;4192472;28;20029;-82
2021/06/20 03:40:58;;;;;;;32.95;26.00;;;17.50;99.90;;;;;;4190930;28;20029;-80
2021/06/20 03:42:59;;;;;;;32.55;25.45;;;17.60;99.90;;;;;;4196832;28;20041;-80
2021/06/20 03:45:00;;;;;;;31.30;24.10;;;17.50;99.90;;;;;;4196558;28;20428;-80
2021/06/20 03:47:00;;;;;;;29.80;23.48;;;17.60;99.90;;;;;;4187264;28;20029;-79
2021/06/20 03:49:02;;;;;;;35.22;27.80;;;17.60;99.90;;;;;;4195720;28;20056;-80
2021/06/20 03:51:03;;;;;;;35.47;23.95;;;17.50;99.90;;;;;;4195169;28;20040;-80
2021/06/20 03:53:05;;;;;;;32.53;25.25;;;17.50;99.90;;;;;;4188929;28;20120;-80
2021/06/20 03:55:08;;;;;;;39.28;29.05;;;17.50;99.90;;;;;;4186269;28;20444;-80
2021/06/20 03:57:14;;;;;;;38.88;28.48;;;17.50;99.90;;;;;;4188008;28;20083;-81
2021/06/20 03:59:15;;;;;;;40.55;29.85;;;17.50;99.90;;;;;;4197274;28;20479;-80
2021/06/20 04:01:17;;;;;;;38.58;29.50;;;17.50;99.90;;;;;;4198818;28;20107;-79
2021/06/20 04:03:18;;;;;;;33.58;25.25;;;17.50;99.90;;;;;;4198164;28;20472;-80
2021/06/20 04:05:18;;;;;;;33.60;23.83;;;17.40;99.90;;;;;;4189812;28;20082;-80
2021/06/20 04:07:18;;;;;;;38.08;27.08;;;17.40;99.90;;;;;;4193414;28;20557;-80
2021/06/20 04:09:19;;;;;;;39.70;28.67;;;17.30;99.90;;;;;;4197282;28;20048;-80
2021/06/20 04:11:20;;;;;;;45.75;29.70;;;17.30;99.90;;;;;;4193479;28;20152;-79
2021/06/20 04:13:21;;;;;;;46.53;29.80;;;17.30;99.90;;;;;;4198315;28;20043;-78
2021/06/20 04:15:22;;;;;;;42.17;28.90;;;17.20;99.90;;;;;;4197969;28;20060;-79
2021/06/20 04:17:23;;;;;;;42.20;29.10;;;17.20;99.90;;;;;;4187995;28;20361;-79
2021/06/20 04:19:24;;;;;;;49.80;32.33;;;17.20;99.90;;;;;;4191607;28;20430;-80
2021/06/20 04:21:24;;;;;;;56.22;30.52;;;17.20;99.90;;;;;;4186710;28;20048;-80
2021/06/20 04:23:25;;;;;;;45.58;30.45;;;17.20;99.90;;;;;;4184804;28;20064;-80
2021/06/20 04:25:26;;;;;;;43.05;29.02;;;17.10;99.90;;;;;;4188013;28;20483;-79
2021/06/20 04:27:27;;;;;;;49.55;31.25;;;17.20;99.90;;;;;;4197803;28;20042;-79
2021/06/20 04:29:28;;;;;;;47.50;30.60;;;17.20;99.90;;;;;;4199275;28;20168;-78
2021/06/20 04:31:29;;;;;;;48.15;33.05;;;17.10;99.90;;;;;;4188714;28;20118;-79
2021/06/20 04:33:29;;;;;;;45.47;30.75;;;17.20;99.90;;;;;;4198104;28;20418;-80
2021/06/20 04:35:30;;;;;;;42.95;29.10;;;17.20;99.90;;;;;;4195473;28;20025;-78
2021/06/20 04:37:31;;;;;;;40.35;29.73;;;17.20;99.90;;;;;;4195205;28;20040;-79
2021/06/20 04:39:31;;;;;;;46.60;27.65;;;17.20;99.90;;;;;;4199383;28;20528;-80
2021/06/20 04:41:33;;;;;;;40.22;27.77;;;17.30;99.90;;;;;;4197674;28;20422;-78
2021/06/20 04:45:46;;;;;;;37.20;26.30;;;17.30;99.90;;;;;;4196512;28;20396;-79
2021/06/20 04:47:47;;;;;;;38.85;25.77;;;17.40;99.90;;;;;;4193972;28;20069;-79
2021/06/20 04:49:51;;;;;;;32.97;24.52;;;17.40;99.90;;;;;;4199382;28;20039;-79
2021/06/20 04:51:53;;;;;;;34.65;24.05;;;17.40;99.90;;;;;;4197753;28;20029;-78
2021/06/20 04:53:54;;;;;;;35.08;23.90;;;17.40;99.90;;;;;;4197284;28;20032;-78
2021/06/20 04:55:54;;;;;;;33.00;21.40;;;17.40;99.90;;;;;;4192345;28;20025;-78
2021/06/20 04:57:55;;;;;;;25.92;19.83;;;17.40;99.90;;;;;;4197899;28;20039;-79
2021/06/20 05:00:00;;;;;;;25.40;17.77;;;17.30;99.90;;;;;;4192036;28;20444;-79
2021/06/20 05:02:04;;;;;;;21.08;17.60;;;17.30;99.90;;;;;;4195414;28;20051;-80
2021/06/20 05:04:05;;;;;;;19.63;15.48;;;17.30;99.90;;;;;;4210856;28;20028;-79
2021/06/20 05:06:07;;;;;;;20.63;15.85;;;17.20;99.90;;;;;;4195166;28;20511;-80
2021/06/20 05:08:08;;;;;;;23.85;16.52;;;17.20;99.90;;;;;;4198011;28;20021;-80
2021/06/20 05:10:09;;;;;;;17.65;14.95;;;17.20;99.90;;;;;;4196153;28;20031;-80
2021/06/20 05:12:10;;;;;;;17.63;14.15;;;17.10;99.90;;;;;;4193063;28;20044;-80
2021/06/20 05:14:11;;;;;;;19.38;15.70;;;17.10;99.90;;;;;;4198056;28;20029;-79
2021/06/20 05:16:11;;;;;;;16.23;13.88;;;17.20;99.90;;;;;;4197496;28;20069;-79
2021/06/20 05:18:13;;;;;;;18.27;14.43;;;17.10;99.90;;;;;;4193155;28;20029;-79
2021/06/20 05:20:13;;;;;;;15.00;13.45;;;17.20;99.90;;;;;;4196175;28;20423;-79
2021/06/20 05:22:15;;;;;;;16.63;14.63;;;17.10;99.90;;;;;;4196436;28;20028;-78
2021/06/20 05:24:16;;;;;;;17.52;14.35;;;17.20;99.90;;;;;;4180249;28;20075;-78
2021/06/20 05:26:17;;;;;;;20.42;15.23;;;17.20;99.90;;;;;;4195405;28;20029;-77
2021/06/20 05:28:18;;;;;;;18.98;15.13;;;17.20;99.90;;;;;;4196851;28;20089;-78
2021/06/20 05:30:19;;;;;;;17.10;14.23;;;17.30;99.90;;;;;;4198017;28;20044;-78
2021/06/20 05:32:20;;;;;;;21.25;13.75;;;17.30;99.90;;;;;;4198015;28;20032;-78
2021/06/20 05:34:21;;;;;;;17.23;13.88;;;17.30;99.90;;;;;;4196984;28;20047;-78
2021/06/20 05:36:22;;;;;;;18.13;14.00;;;17.40;99.90;;;;;;4194268;28;20044;-79
2021/06/20 05:38:23;;;;;;;15.65;13.82;;;17.40;99.90;;;;;;4194449;28;20547;-79
2021/06/20 05:40:24;;;;;;;16.25;14.15;;;17.30;99.90;;;;;;4191448;28;20048;-78
2021/06/20 05:42:25;;;;;;;18.58;15.68;;;17.40;99.90;;;;;;4194521;28;20210;-79
2021/06/20 05:44:26;;;;;;;15.80;14.10;;;17.30;99.90;;;;;;4196263;28;20040;-79
2021/06/20 05:46:27;;;;;;;15.82;14.15;;;17.30;99.90;;;;;;4195707;28;20049;-79
2021/06/20 05:48:30;;;;;;;19.92;15.27;;;17.40;99.90;;;;;;4195960;28;20029;-78
2021/06/20 05:50:31;;;;;;;16.83;13.60;;;17.30;99.90;;;;;;4196140;28;20475;-79
2021/06/20 05:52:32;;;;;;;17.05;14.68;;;17.40;99.90;;;;;;4193966;28;20044;-79
2021/06/20 05:54:36;;;;;;;17.52;14.80;;;17.40;99.90;;;;;;4195952;28;20033;-79
2021/06/20 05:56:37;;;;;;;15.63;12.90;;;17.50;99.90;;;;;;4196035;28;20044;-79
2021/06/20 05:58:37;;;;;;;16.15;12.45;;;17.60;99.90;;;;;;4192908;28;20055;-80
2021/06/20 06:00:38;;;;;;;13.90;12.50;;;17.60;99.90;;;;;;4192424;28;20083;-79
2021/06/20 06:02:39;;;;;;;17.70;14.55;;;17.50;99.90;;;;;;4193324;28;20032;-79
2021/06/20 06:04:43;;;;;;;16.40;13.60;;;17.40;99.90;;;;;;4193200;28;20463;-79
2021/06/20 06:06:44;;;;;;;18.20;13.80;;;17.40;99.90;;;;;;4194438;28;20116;-78
2021/06/20 06:08:45;;;;;;;17.45;15.00;;;17.60;99.90;;;;;;4194620;28;20044;-78
2021/06/20 06:10:45;;;;;;;15.40;13.85;;;17.60;99.90;;;;;;4193790;28;20020;-78
2021/06/20 06:12:46;;;;;;;19.17;16.23;;;17.60;99.90;;;;;;4193599;28;20025;-79
2021/06/20 06:14:48;;;;;;;19.58;17.13;;;17.60;99.90;;;;;;4195579;28;20115;-79
2021/06/20 06:16:50;;;;;;;19.73;17.55;;;17.60;99.90;;;;;;4195240;28;20036;-80
2021/06/20 06:18:51;;;;;;;19.40;17.33;;;17.80;99.90;;;;;;4190097;28;20051;-80
2021/06/20 06:20:52;;;;;;;22.23;16.05;;;17.80;99.90;;;;;;4193521;28;20128;-80
2021/06/20 06:22:53;;;;;;;21.77;17.67;;;17.80;99.90;;;;;;4194931;28;20051;-80
2021/06/20 06:24:54;;;;;;;19.90;16.42;;;17.70;99.90;;;;;;4195106;28;20032;-79
2021/06/20 06:26:55;;;;;;;25.38;17.70;;;17.70;99.90;;;;;;4197357;28;20047;-80
2021/06/20 06:28:56;;;;;;;20.80;17.52;;;17.70;99.90;;;;;;4195714;28;20037;-79
2021/06/20 06:30:57;;;;;;;25.70;18.23;;;17.70;99.90;;;;;;4196917;28;20028;-79
2021/06/20 06:32:58;;;;;;;24.40;18.92;;;17.70;99.90;;;;;;4186374;28;20044;-78
2021/06/20 06:34:58;;;;;;;25.65;20.85;;;17.70;99.90;;;;;;4194825;28;20032;-78
2021/06/20 06:36:59;;;;;;;30.90;23.70;;;17.70;99.90;;;;;;4192022;28;20032;-79
2021/06/20 06:39:00;;;;;;;31.77;23.95;;;17.70;99.90;;;;;;4181851;28;20025;-78
2021/06/20 06:41:00;;;;;;;32.50;24.38;;;17.80;99.90;;;;;;4195541;28;20024;-79
2021/06/20 06:43:01;;;;;;;28.80;22.40;;;17.90;99.90;;;;;;4195050;28;20415;-79
2021/06/20 06:45:03;;;;;;;38.72;27.92;;;17.90;99.90;;;;;;4196629;28;20047;-79
2021/06/20 06:47:05;;;;;;;36.55;27.60;;;18.00;99.90;;;;;;4193203;28;20410;-79
2021/06/20 06:49:06;;;;;;;38.13;26.88;;;18.00;99.90;;;;;;4194973;28;20059;-80
2021/06/20 06:51:08;;;;;;;38.38;27.95;;;17.90;99.90;;;;;;4195433;28;20411;-78
2021/06/20 06:53:08;;;;;;;41.85;30.90;;;17.90;99.90;;;;;;4196600;28;20021;-78
2021/06/20 06:55:10;;;;;;;39.75;27.98;;;17.90;99.90;;;;;;4192350;28;20040;-78
2021/06/20 06:57:11;;;;;;;36.83;27.15;;;17.90;99.90;;;;;;4195414;28;20074;-78
2021/06/20 06:59:12;;;;;;;35.50;25.98;;;17.90;99.90;;;;;;4195671;28;20040;-78
2021/06/20 07:01:12;;;;;;;34.90;27.70;;;17.90;99.90;;;;;;4196733;28;20117;-78
2021/06/20 07:03:14;;;;;;;37.00;27.27;;;18.00;99.90;;;;;;4196542;28;20029;-79
2021/06/20 07:05:15;;;;;;;36.72;26.30;;;18.00;99.90;;;;;;4196608;28;20036;-78
2021/06/20 07:07:16;;;;;;;37.30;26.42;;;18.10;99.90;;;;;;4185225;28;20558;-77
2021/06/20 07:09:19;;;;;;;31.77;26.08;;;18.20;99.90;;;;;;4186183;28;20501;-78
2021/06/20 07:11:20;;;;;;;29.98;23.75;;;18.30;99.90;;;;;;4195669;28;20052;-77
2021/06/20 07:13:22;;;;;;;31.02;23.15;;;18.40;99.90;;;;;;4189556;28;20480;-78
2021/06/20 07:15:24;;;;;;;32.33;25.63;;;18.40;99.90;;;;;;4187969;28;20032;-77
2021/06/20 07:17:24;;;;;;;27.90;23.48;;;18.50;99.90;;;;;;4190013;28;20045;-77
2021/06/20 07:19:25;;;;;;;31.02;23.55;;;18.60;99.90;;;;;;4188330;28;20025;-77
2021/06/20 07:21:26;;;;;;;25.92;21.90;;;18.70;99.90;;;;;;4196824;28;20131;-76
2021/06/20 07:23:28;;;;;;;25.23;21.73;;;18.70;99.90;;;;;;4194939;28;20036;-78
2021/06/20 07:25:28;;;;;;;28.10;22.75;;;18.70;99.90;;;;;;4194818;28;20379;-78
2021/06/20 07:27:29;;;;;;;28.27;20.70;;;18.70;99.90;;;;;;4197260;28;20024;-77
2021/06/20 07:29:30;;;;;;;21.63;18.42;;;18.80;99.90;;;;;;4196735;28;20032;-77
2021/06/20 07:31:31;;;;;;;18.75;16.13;;;18.80;99.90;;;;;;4193758;28;20041;-81
2021/06/20 07:33:32;;;;;;;20.67;16.08;;;18.80;99.90;;;;;;4195242;28;20469;-78
2021/06/20 07:35:33;;;;;;;19.55;16.33;;;19.00;99.90;;;;;;4198171;28;20024;-78
2021/06/20 07:37:37;;;;;;;19.65;15.55;;;19.10;99.90;;;;;;4198005;28;20033;-79
2021/06/20 07:39:38;;;;;;;17.10;15.30;;;19.30;99.90;;;;;;4198004;28;20077;-80
2021/06/20 07:41:38;;;;;;;15.95;14.25;;;19.60;99.90;;;;;;4200001;28;20108;-78
2021/06/20 07:43:39;;;;;;;15.85;14.07;;;19.70;99.90;;;;;;4193802;28;20044;-78
2021/06/20 07:45:40;;;;;;;18.10;15.50;;;19.90;99.90;;;;;;4198929;28;20029;-79
2021/06/20 07:47:41;;;;;;;18.08;14.23;;;19.80;99.90;;;;;;4198803;28;20621;-79
2021/06/20 07:49:42;;;;;;;15.13;13.63;;;19.90;99.90;;;;;;4198451;28;20106;-80
2021/06/20 07:51:43;;;;;;;16.35;14.65;;;19.90;99.90;;;;;;4199776;28;20459;-79
2021/06/20 07:53:44;;;;;;;16.27;14.57;;;20.10;99.90;;;;;;4188536;28;20033;-78
2021/06/20 07:55:45;;;;;;;16.40;14.38;;;20.20;99.90;;;;;;4197721;28;20367;-80
2021/06/20 07:57:45;;;;;;;14.98;13.43;;;20.20;99.90;;;;;;4199882;28;20384;-79
2021/06/20 07:59:50;;;;;;;14.38;12.93;;;20.30;99.90;;;;;;4198018;28;20070;-81
2021/06/20 08:01:51;;;;;;;13.70;12.45;;;20.30;99.90;;;;;;4198944;28;20032;-80
2021/06/20 08:03:53;;;;;;;17.63;13.85;;;20.20;99.90;;;;;;4199572;28;20082;-79
2021/06/20 08:05:53;;;;;;;14.55;13.15;;;20.00;99.90;;;;;;4200124;28;20036;-81
2021/06/20 08:07:54;;;;;;;13.77;12.38;;;20.00;99.90;;;;;;4198528;28;20055;-80
2021/06/20 08:09:58;;;;;;;14.27;12.88;;;20.10;99.90;;;;;;4199829;28;20127;-79
2021/06/20 08:11:58;;;;;;;12.90;11.60;;;20.30;99.90;;;;;;4197307;28;20070;-78
2021/06/20 08:14:00;;;;;;;12.32;11.18;;;20.80;99.90;;;;;;4199271;28;20033;-78
2021/06/20 08:16:00;;;;;;;10.55;9.48;;;21.20;99.90;;;;;;4184636;28;20508;-78
2021/06/20 08:18:01;;;;;;;12.00;10.90;;;21.10;99.90;;;;;;4192592;28;20059;-78
2021/06/20 08:20:06;;;;;;;10.35;9.43;;;21.10;99.90;;;;;;4199105;28;20021;-79
2021/06/20 08:22:08;;;;;;;11.07;10.07;;;21.10;99.90;;;;;;4195861;28;20029;-81
2021/06/20 08:24:10;;;;;;;11.20;10.20;;;21.30;99.90;;;;;;4189527;28;20025;-81
2021/06/20 08:26:11;;;;;;;9.75;8.93;;;21.50;99.90;;;;;;4199179;28;20013;-78
2021/06/20 08:28:11;;;;;;;9.70;8.85;;;21.70;99.90;;;;;;4186105;28;20036;-77
2021/06/20 08:30:13;;;;;;;10.65;9.70;;;21.70;99.90;;;;;;4197211;28;20515;-77
2021/06/20 08:32:16;;;;;;;9.32;8.43;;;22.10;99.90;;;;;;4197353;28;20461;-77
2021/06/20 08:34:17;;;;;;;10.50;8.68;;;22.30;99.90;;;;;;4195747;28;20119;-78
2021/06/20 08:36:17;;;;;;;9.73;8.65;;;22.50;99.90;;;;;;4214214;28;20391;-79
2021/06/20 08:38:18;;;;;;;10.18;9.27;;;22.60;99.90;;;;;;4194682;28;20045;-78
2021/06/20 08:40:18;;;;;;;9.65;7.82;;;22.50;99.90;;;;;;4193779;28;20568;-76
2021/06/20 08:42:19;;;;;;;8.63;7.72;;;22.50;99.90;;;;;;4195278;28;20120;-78
2021/06/20 08:44:25;;;;;;;9.48;8.60;;;22.70;99.90;;;;;;4186106;28;20037;-76
2021/06/20 08:46:26;;;;;;;9.68;8.77;;;23.10;99.90;;;;;;4198942;28;20468;-75
2021/06/20 08:48:27;;;;;;;10.60;9.60;;;23.10;99.90;;;;;;4197162;28;20112;-77
2021/06/20 08:50:28;;;;;;;10.80;9.70;;;23.00;99.90;;;;;;4193376;28;20104;-77
2021/06/20 08:52:29;;;;;;;12.45;10.55;;;22.70;99.90;;;;;;4197409;28;20028;-78
2021/06/20 08:54:30;;;;;;;11.00;9.90;;;22.50;99.90;;;;;;4198748;28;20071;-77
2021/06/20 08:56:31;;;;;;;11.23;10.13;;;22.00;99.90;;;;;;4180407;28;20415;-77
2021/06/20 08:58:34;;;;;;;11.38;10.18;;;22.20;99.90;;;;;;4198532;28;20120;-78
2021/06/20 09:00:34;;;;;;;13.20;11.90;;;22.30;99.90;;;;;;4197387;28;20340;-78
2021/06/20 09:02:36;;;;;;;17.90;12.63;;;22.40;99.90;;;;;;4197773;28;20167;-78
2021/06/20 09:04:37;;;;;;;13.20;11.90;;;22.00;99.90;;;;;;4198348;28;20032;-78
2021/06/20 09:06:39;;;;;;;15.55;13.98;;;21.90;99.90;;;;;;4195793;28;20025;-79
2021/06/20 09:08:46;;;;;;;17.77;15.98;;;21.80;99.90;;;;;;4192391;28;20051;-77
2021/06/20 09:10:46;;;;;;;21.40;17.88;;;21.50;99.90;;;;;;4207348;28;20024;-80
2021/06/20 09:12:57;;;;;;;20.33;17.33;;;21.40;99.90;;;;;;4194663;28;20442;-79
2021/06/20 09:14:57;;;;;;;29.90;21.67;;;21.40;99.90;;;;;;4195945;28;20031;-78
2021/06/20 09:16:58;;;;;;;31.13;24.65;;;21.20;99.90;;;;;;4197814;28;20041;-80
2021/06/20 09:18:59;;;;;;;33.40;26.23;;;21.10;99.90;;;;;;4196866;28;20427;-79
2021/06/20 09:21:08;;;;;;;37.30;28.23;;;20.80;99.90;;;;;;4188472;28;20494;-79
2021/06/20 09:23:14;;;;;;;33.33;25.70;;;21.20;99.90;;;;;;4194859;28;20052;-77
2021/06/20 09:25:15;;;;;;;42.35;29.98;;;21.70;99.90;;;;;;4194530;28;20032;-78
2021/06/20 09:27:19;;;;;;;42.20;29.33;;;22.10;99.90;;;;;;4185631;28;20020;-78
2021/06/20 09:29:39;;;;;;;40.80;28.02;;;22.20;99.90;;;;;;4198046;28;20107;-78
2021/06/20 09:31:47;;;;;;;42.60;31.73;;;22.20;99.90;;;;;;4196034;28;20475;-79
2021/06/20 09:33:57;;;;;;;39.40;28.88;;;22.40;99.90;;;;;;4195337;28;20048;-79
2021/06/20 09:35:59;;;;;;;40.60;26.33;;;22.70;99.90;;;;;;4190282;28;20033;-81
2021/06/20 09:37:59;;;;;;;42.28;31.05;;;22.60;99.90;;;;;;4188577;28;20082;-79
2021/06/20 09:40:15;;;;;;;38.90;29.23;;;22.50;99.90;;;;;;4196593;28;20426;-77
2021/06/20 09:42:17;;;;;;;42.63;28.92;;;22.20;99.90;;;;;;4181800;28;20113;-78
2021/06/20 09:44:17;;;;;;;40.50;30.40;;;21.60;99.90;;;;;;4197931;28;20040;-79
2021/06/20 09:46:18;;;;;;;53.80;40.00;;;21.20;99.90;;;;;;4192101;28;20040;-79
2021/06/20 09:48:30;;;;;;;40.35;28.92;;;21.40;99.90;;;;;;4197080;28;20029;-78
2021/06/20 09:50:37;;;;;;;49.25;37.17;;;21.70;99.90;;;;;;4195146;28;20033;-77
2021/06/20 09:52:38;;;;;;;34.63;26.95;;;22.40;99.90;;;;;;4195200;28;21749;-78
2021/06/20 09:54:45;;;;;;;41.60;27.85;;;22.60;99.90;;;;;;4193361;28;20024;-78
2021/06/20 09:56:46;;;;;;;35.03;25.10;;;22.70;99.90;;;;;;4196490;28;20029;-78
2021/06/20 09:59:01;;;;;;;32.95;25.10;;;22.80;99.90;;;;;;4192370;28;20443;-76
2021/06/20 10:01:10;;;;;;;33.35;25.05;;;23.20;99.90;;;;;;4195005;28;20032;-76
2021/06/20 10:03:23;;;;;;;35.92;26.27;;;23.70;99.90;;;;;;4195169;28;20545;-77
2021/06/20 10:05:24;;;;;;;31.67;24.48;;;23.80;99.90;;;;;;4197400;28;20028;-77
2021/06/20 10:07:26;;;;;;;32.78;24.50;;;23.70;99.90;;;;;;4185053;28;20063;-75
2021/06/20 10:09:27;;;;;;;32.85;23.20;;;23.70;99.90;;;;;;4196159;28;20052;-77
2021/06/20 10:11:28;;;;;;;28.52;22.40;;;23.70;99.90;;;;;;4192074;28;20074;-78
2021/06/20 10:13:29;;;;;;;28.17;22.83;;;23.90;99.90;;;;;;4169145;28;20029;-75
2021/06/20 10:15:30;;;;;;;31.73;24.42;;;23.90;99.90;;;;;;4195929;28;20033;-76
2021/06/20 10:17:36;;;;;;;35.22;24.83;;;23.60;99.90;;;;;;4191644;28;20034;-78
2021/06/20 10:19:41;;;;;;;32.47;25.00;;;23.30;99.90;;;;;;4195973;28;20036;-77